sensor_id;sensor_type;location;lat;lon;timestamp;pressure;altitude;pressure_sealevel;temperature;humidity
50550;BME280;36505;52.512;13.460;2022-08-20T00:00:22;100667.81;;;21.65;81.00
50550;BME280;36505;52.512;13.460;2022-08-20T00:02:51;100673.22;;;21.62;81.13
50550;BME280;36505;52.512;13.460;2022-08-20T00:05:28;100687.47;;;21.60;81.18
50550;BME280;36505;52.512;13.460;2022-08-20T00:07:53;100682.22;;;21.59;81.31
50550;BME280;36505;52.512;13.460;2022-08-20T00:10:20;100684.19;;;21.58;81.56
50550;BME280;36505;52.512;13.460;2022-08-20T00:12:48;100689.59;;;21.55;81.93
50550;BME280;36505;52.512;13.460;2022-08-20T00:15:15;100689.91;;;21.53;82.25
50550;BME280;36505;52.512;13.460;2022-08-20T00:17:41;100691.03;;;21.52;82.41
50550;BME280;36505;52.512;13.460;2022-08-20T00:20:10;100703.00;;;21.53;82.47
50550;BME280;36505;52.512;13.460;2022-08-20T00:22:35;100698.06;;;21.50;82.39
50550;BME280;36505;52.512;13.460;2022-08-20T00:25:02;100697.25;;;21.49;82.71
50550;BME280;36505;52.512;13.460;2022-08-20T00:27:27;100704.28;;;21.47;82.68
50550;BME280;36505;52.512;13.460;2022-08-20T00:29:52;100704.91;;;21.44;83.02
50550;BME280;36505;52.512;13.460;2022-08-20T00:32:18;100702.56;;;21.37;83.01
50550;BME280;36505;52.512;13.460;2022-08-20T00:34:43;100705.03;;;21.39;83.10
50550;BME280;36505;52.512;13.460;2022-08-20T00:37:08;100700.28;;;21.39;82.92
50550;BME280;36505;52.512;13.460;2022-08-20T00:39:34;100709.78;;;21.38;82.61
50550;BME280;36505;52.512;13.460;2022-08-20T00:42:00;100695.16;;;21.33;82.88
50550;BME280;36505;52.512;13.460;2022-08-20T00:44:25;100696.16;;;21.37;82.97
50550;BME280;36505;52.512;13.460;2022-08-20T00:46:52;100697.66;;;21.34;83.24
50550;BME280;36505;52.512;13.460;2022-08-20T00:49:21;100700.75;;;21.33;83.32
50550;BME280;36505;52.512;13.460;2022-08-20T00:52:01;100704.34;;;21.33;84.10
50550;BME280;36505;52.512;13.460;2022-08-20T00:57:00;100705.78;;;21.31;84.68
50550;BME280;36505;52.512;13.460;2022-08-20T00:59:30;100706.09;;;21.29;84.68
50550;BME280;36505;52.512;13.460;2022-08-20T01:01:56;100708.88;;;21.29;84.95
50550;BME280;36505;52.512;13.460;2022-08-20T01:04:27;100705.31;;;21.28;85.20
50550;BME280;36505;52.512;13.460;2022-08-20T01:06:53;100706.09;;;21.29;85.48
50550;BME280;36505;52.512;13.460;2022-08-20T01:09:19;100708.41;;;21.27;85.46
50550;BME280;36505;52.512;13.460;2022-08-20T01:11:45;100710.69;;;21.25;85.42
50550;BME280;36505;52.512;13.460;2022-08-20T01:14:12;100711.50;;;21.25;86.00
50550;BME280;36505;52.512;13.460;2022-08-20T01:16:50;100713.28;;;21.21;85.88
50550;BME280;36505;52.512;13.460;2022-08-20T01:19:44;100718.50;;;21.23;85.84
50550;BME280;36505;52.512;13.460;2022-08-20T01:22:08;100707.50;;;21.18;85.92
50550;BME280;36505;52.512;13.460;2022-08-20T01:25:03;100715.03;;;21.17;85.91
50550;BME280;36505;52.512;13.460;2022-08-20T01:27:31;100719.25;;;21.15;85.80
50550;BME280;36505;52.512;13.460;2022-08-20T01:29:57;100705.97;;;21.12;85.98
50550;BME280;36505;52.512;13.460;2022-08-20T01:32:23;100714.81;;;21.14;85.74
50550;BME280;36505;52.512;13.460;2022-08-20T01:34:48;100706.56;;;21.09;85.86
50550;BME280;36505;52.512;13.460;2022-08-20T01:37:13;100711.53;;;21.12;86.61
50550;BME280;36505;52.512;13.460;2022-08-20T01:39:39;100714.31;;;21.12;86.61
50550;BME280;36505;52.512;13.460;2022-08-20T01:44:35;100719.38;;;21.10;86.13
50550;BME280;36505;52.512;13.460;2022-08-20T01:47:22;100714.44;;;21.07;85.74
50550;BME280;36505;52.512;13.460;2022-08-20T01:49:50;100716.72;;;21.05;85.76
50550;BME280;36505;52.512;13.460;2022-08-20T01:52:31;100719.81;;;21.03;85.95
50550;BME280;36505;52.512;13.460;2022-08-20T01:54:57;100724.06;;;21.01;86.14
50550;BME280;36505;52.512;13.460;2022-08-20T01:57:24;100723.53;;;20.99;85.84
50550;BME280;36505;52.512;13.460;2022-08-20T01:59:51;100716.00;;;20.99;85.46
50550;BME280;36505;52.512;13.460;2022-08-20T02:02:16;100719.09;;;20.98;85.41
50550;BME280;36505;52.512;13.460;2022-08-20T02:04:42;100723.03;;;20.97;85.03
50550;BME280;36505;52.512;13.460;2022-08-20T02:07:14;100723.31;;;20.95;84.71
50550;BME280;36505;52.512;13.460;2022-08-20T02:09:40;100725.31;;;20.95;84.57
50550;BME280;36505;52.512;13.460;2022-08-20T02:12:07;100734.81;;;20.94;84.45
50550;BME280;36505;52.512;13.460;2022-08-20T02:14:33;100727.59;;;20.93;84.29
50550;BME280;36505;52.512;13.460;2022-08-20T02:16:59;100727.06;;;20.90;84.11
50550;BME280;36505;52.512;13.460;2022-08-20T02:19:29;100728.41;;;20.93;84.38
50550;BME280;36505;52.512;13.460;2022-08-20T02:21:58;100734.59;;;20.90;84.75
50550;BME280;36505;52.512;13.460;2022-08-20T02:24:24;100736.84;;;20.88;84.34
50550;BME280;36505;52.512;13.460;2022-08-20T02:26:51;100747.50;;;20.86;84.20
50550;BME280;36505;52.512;13.460;2022-08-20T02:29:17;100754.19;;;20.85;84.62
50550;BME280;36505;52.512;13.460;2022-08-20T02:31:43;100752.84;;;20.82;84.45
50550;BME280;36505;52.512;13.460;2022-08-20T02:34:10;100748.41;;;20.81;84.62
50550;BME280;36505;52.512;13.460;2022-08-20T02:36:37;100745.75;;;20.76;84.56
50550;BME280;36505;52.512;13.460;2022-08-20T02:39:08;100742.66;;;20.78;84.48
50550;BME280;36505;52.512;13.460;2022-08-20T02:41:36;100749.19;;;20.73;84.75
50550;BME280;36505;52.512;13.460;2022-08-20T02:44:03;100753.09;;;20.72;84.96
50550;BME280;36505;52.512;13.460;2022-08-20T02:46:29;100750.44;;;20.67;85.27
50550;BME280;36505;52.512;13.460;2022-08-20T02:48:55;100756.00;;;20.67;85.77
50550;BME280;36505;52.512;13.460;2022-08-20T02:51:20;100755.78;;;20.64;85.91
50550;BME280;36505;52.512;13.460;2022-08-20T02:53:46;100750.03;;;20.60;86.57
50550;BME280;36505;52.512;13.460;2022-08-20T02:56:11;100755.19;;;20.53;86.78
50550;BME280;36505;52.512;13.460;2022-08-20T02:58:37;100749.41;;;20.49;86.79
50550;BME280;36505;52.512;13.460;2022-08-20T03:01:06;100740.75;;;20.51;86.79
50550;BME280;36505;52.512;13.460;2022-08-20T03:03:32;100740.75;;;20.51;87.17
50550;BME280;36505;52.512;13.460;2022-08-20T03:05:58;100741.56;;;20.52;87.36
50550;BME280;36505;52.512;13.460;2022-08-20T03:08:24;100744.66;;;20.50;87.19
50550;BME280;36505;52.512;13.460;2022-08-20T03:10:51;100734.66;;;20.49;87.50
50550;BME280;36505;52.512;13.460;2022-08-20T03:13:17;100726.63;;;20.47;87.44
50550;BME280;36505;52.512;13.460;2022-08-20T03:15:49;100726.63;;;20.47;87.83
50550;BME280;36505;52.512;13.460;2022-08-20T03:18:16;100722.72;;;20.48;87.86
50550;BME280;36505;52.512;13.460;2022-08-20T03:20:43;100730.22;;;20.48;88.18
50550;BME280;36505;52.512;13.460;2022-08-20T03:23:08;100728.78;;;20.50;87.98
50550;BME280;36505;52.512;13.460;2022-08-20T03:25:34;100725.19;;;20.50;88.14
50550;BME280;36505;52.512;13.460;2022-08-20T03:28:00;100705.63;;;20.41;88.05
50550;BME280;36505;52.512;13.460;2022-08-20T03:30:27;100724.06;;;20.51;88.52
50550;BME280;36505;52.512;13.460;2022-08-20T03:32:53;100715.72;;;20.51;88.60
50550;BME280;36505;52.512;13.460;2022-08-20T03:35:20;100714.88;;;20.50;88.66
50550;BME280;36505;52.512;13.460;2022-08-20T03:37:47;100699.22;;;20.41;88.78
50550;BME280;36505;52.512;13.460;2022-08-20T03:40:16;100716.03;;;20.49;88.79
50550;BME280;36505;52.512;13.460;2022-08-20T03:42:42;100710.28;;;20.46;88.86
50550;BME280;36505;52.512;13.460;2022-08-20T03:45:09;100719.63;;;20.50;89.24
50550;BME280;36505;52.512;13.460;2022-08-20T03:47:37;100724.66;;;20.48;89.32
50550;BME280;36505;52.512;13.460;2022-08-20T03:50:05;100715.84;;;20.46;89.05
50550;BME280;36505;52.512;13.460;2022-08-20T03:52:31;100717.47;;;20.47;89.20
50550;BME280;36505;52.512;13.460;2022-08-20T03:54:56;100726.63;;;20.47;89.30
50550;BME280;36505;52.512;13.460;2022-08-20T03:57:22;100728.63;;;20.47;88.99
50550;BME280;36505;52.512;13.460;2022-08-20T03:59:47;100729.09;;;20.49;89.08
50550;BME280;36505;52.512;13.460;2022-08-20T04:02:13;100730.22;;;20.48;89.02
50550;BME280;36505;52.512;13.460;2022-08-20T04:04:39;100729.09;;;20.49;89.02
50550;BME280;36505;52.512;13.460;2022-08-20T04:07:17;100727.97;;;20.50;88.97
50550;BME280;36505;52.512;13.460;2022-08-20T04:09:55;100730.44;;;20.52;89.02
50550;BME280;36505;52.512;13.460;2022-08-20T04:12:22;100728.28;;;20.48;89.32
50550;BME280;36505;52.512;13.460;2022-08-20T04:14:49;100727.56;;;20.43;88.79
50550;BME280;36505;52.512;13.460;2022-08-20T04:17:15;100734.78;;;20.44;88.46
50550;BME280;36505;52.512;13.460;2022-08-20T04:19:41;100738.69;;;20.43;88.28
50550;BME280;36505;52.512;13.460;2022-08-20T04:22:06;100743.44;;;20.42;88.33
50550;BME280;36505;52.512;13.460;2022-08-20T04:24:33;100746.22;;;20.42;87.89
50550;BME280;36505;52.512;13.460;2022-08-20T04:26:59;100735.72;;;20.39;87.56
50550;BME280;36505;52.512;13.460;2022-08-20T04:29:26;100740.13;;;20.40;87.81
50550;BME280;36505;52.512;13.460;2022-08-20T04:31:52;100733.78;;;20.40;87.42
50550;BME280;36505;52.512;13.460;2022-08-20T04:34:17;100732.13;;;20.39;87.47
50550;BME280;36505;52.512;13.460;2022-08-20T04:36:43;100730.34;;;20.43;87.31
50550;BME280;36505;52.512;13.460;2022-08-20T04:39:15;100732.31;;;20.42;87.25
50550;BME280;36505;52.512;13.460;2022-08-20T04:41:41;100730.88;;;20.45;87.15
50550;BME280;36505;52.512;13.460;2022-08-20T04:44:07;100728.63;;;20.47;87.34
50550;BME280;36505;52.512;13.460;2022-08-20T04:46:33;100732.53;;;20.46;87.30
50550;BME280;36505;52.512;13.460;2022-08-20T04:48:58;100733.34;;;20.46;87.48
50550;BME280;36505;52.512;13.460;2022-08-20T04:51:25;100743.84;;;20.49;87.23
50550;BME280;36505;52.512;13.460;2022-08-20T04:53:52;100743.31;;;20.47;86.97
50550;BME280;36505;52.512;13.460;2022-08-20T04:56:18;100749.69;;;20.48;87.08
50550;BME280;36505;52.512;13.460;2022-08-20T04:58:47;100744.13;;;20.48;87.40
50550;BME280;36505;52.512;13.460;2022-08-20T05:01:13;100753.84;;;20.50;87.38
50550;BME280;36505;52.512;13.460;2022-08-20T05:03:39;100735.59;;;20.44;87.38
50550;BME280;36505;52.512;13.460;2022-08-20T05:06:07;100742.59;;;20.56;87.22
50550;BME280;36505;52.512;13.460;2022-08-20T05:08:33;100755.91;;;20.59;87.19
50550;BME280;36505;52.512;13.460;2022-08-20T05:11:00;100764.44;;;20.62;87.31
50550;BME280;36505;52.512;13.460;2022-08-20T05:13:26;100762.78;;;20.61;87.43
50550;BME280;36505;52.512;13.460;2022-08-20T05:15:52;100761.03;;;20.65;87.28
50550;BME280;36505;52.512;13.460;2022-08-20T05:18:20;100772.34;;;20.69;87.24
50550;BME280;36505;52.512;13.460;2022-08-20T05:20:47;100768.13;;;20.71;87.02
50550;BME280;36505;52.512;13.460;2022-08-20T05:23:14;100764.22;;;20.72;86.93
50550;BME280;36505;52.512;13.460;2022-08-20T05:25:42;100764.22;;;20.72;86.61
50550;BME280;36505;52.512;13.460;2022-08-20T05:28:11;100764.75;;;20.74;86.58
50550;BME280;36505;52.512;13.460;2022-08-20T05:30:42;100756.69;;;20.73;86.24
50550;BME280;36505;52.512;13.460;2022-08-20T05:33:09;100750.63;;;20.71;85.73
50550;BME280;36505;52.512;13.460;2022-08-20T05:35:37;100779.34;;;20.80;85.76
50550;BME280;36505;52.512;13.460;2022-08-20T05:38:07;100775.44;;;20.81;85.77
50550;BME280;36505;52.512;13.460;2022-08-20T05:40:35;100773.47;;;20.81;85.92
50550;BME280;36505;52.512;13.460;2022-08-20T05:43:00;100771.72;;;20.85;85.54
50550;BME280;36505;52.512;13.460;2022-08-20T05:45:29;100766.66;;;20.87;84.65
50550;BME280;36505;52.512;13.460;2022-08-20T05:47:54;100766.84;;;20.91;84.60
50550;BME280;36505;52.512;13.460;2022-08-20T05:50:19;100780.66;;;20.96;84.34
50550;BME280;36505;52.512;13.460;2022-08-20T05:52:45;100779.22;;;20.99;83.90
50550;BME280;36505;52.512;13.460;2022-08-20T05:55:11;100780.22;;;21.03;83.50
50550;BME280;36505;52.512;13.460;2022-08-20T05:57:38;100780.75;;;21.05;83.23
50550;BME280;36505;52.512;13.460;2022-08-20T06:00:09;100782.38;;;21.06;83.23
50550;BME280;36505;52.512;13.460;2022-08-20T06:02:35;100788.47;;;21.08;82.92
50550;BME280;36505;52.512;13.460;2022-08-20T06:05:19;100776.69;;;21.11;82.71
50550;BME280;36505;52.512;13.460;2022-08-20T06:07:45;100783.75;;;21.08;82.80
50550;BME280;36505;52.512;13.460;2022-08-20T06:10:14;100786.00;;;21.06;82.22
50550;BME280;36505;52.512;13.460;2022-08-20T06:12:39;100796.00;;;21.07;82.57
50550;BME280;36505;52.512;13.460;2022-08-20T06:15:06;100799.63;;;21.08;82.20
50550;BME280;36505;52.512;13.460;2022-08-20T06:17:31;100796.31;;;21.06;82.05
50550;BME280;36505;52.512;13.460;2022-08-20T06:20:03;100799.09;;;21.06;82.03
50550;BME280;36505;52.512;13.460;2022-08-20T06:22:30;100793.00;;;21.04;81.95
50550;BME280;36505;52.512;13.460;2022-08-20T06:24:56;100797.25;;;21.01;82.17
50550;BME280;36505;52.512;13.460;2022-08-20T06:27:21;100798.69;;;20.99;82.43
50550;BME280;36505;52.512;13.460;2022-08-20T06:29:47;100799.84;;;20.98;82.26
50550;BME280;36505;52.512;13.460;2022-08-20T06:32:13;100784.25;;;20.97;81.92
50550;BME280;36505;52.512;13.460;2022-08-20T06:34:38;100797.88;;;20.98;82.23
50550;BME280;36505;52.512;13.460;2022-08-20T06:37:14;100805.09;;;20.99;82.03
50550;BME280;36505;52.512;13.460;2022-08-20T06:39:40;100810.66;;;20.99;82.43
50550;BME280;36505;52.512;13.460;2022-08-20T06:42:06;100811.78;;;20.98;82.11
50550;BME280;36505;52.512;13.460;2022-08-20T06:44:31;100792.72;;;20.92;81.77
50550;BME280;36505;52.512;13.460;2022-08-20T06:47:00;100810.34;;;21.01;81.71
50550;BME280;36505;52.512;13.460;2022-08-20T06:49:29;100810.03;;;21.02;81.50
50550;BME280;36505;52.512;13.460;2022-08-20T06:51:54;100807.56;;;21.01;81.07
50550;BME280;36505;52.512;13.460;2022-08-20T06:54:20;100811.97;;;21.02;81.30
50550;BME280;36505;52.512;13.460;2022-08-20T06:56:45;100808.41;;;21.01;81.50
50550;BME280;36505;52.512;13.460;2022-08-20T06:59:10;100818.72;;;21.01;82.02
50550;BME280;36505;52.512;13.460;2022-08-20T07:01:36;100816.75;;;21.01;82.26
50550;BME280;36505;52.512;13.460;2022-08-20T07:04:01;100810.66;;;20.99;82.23
50550;BME280;36505;52.512;13.460;2022-08-20T07:06:27;100820.31;;;21.02;82.34
50550;BME280;36505;52.512;13.460;2022-08-20T07:08:54;100822.31;;;21.01;82.15
50550;BME280;36505;52.512;13.460;2022-08-20T07:11:19;100818.19;;;20.99;82.18
50550;BME280;36505;52.512;13.460;2022-08-20T07:13:45;100822.94;;;20.98;82.20
50550;BME280;36505;52.512;13.460;2022-08-20T07:16:10;100828.69;;;21.02;81.88
50550;BME280;36505;52.512;13.460;2022-08-20T07:18:36;100835.06;;;21.02;81.72
50550;BME280;36505;52.512;13.460;2022-08-20T07:21:01;100840.34;;;21.04;81.53
50550;BME280;36505;52.512;13.460;2022-08-20T07:23:27;100835.06;;;21.02;81.64
50550;BME280;36505;52.512;13.460;2022-08-20T07:25:53;100836.94;;;21.07;81.32
50550;BME280;36505;52.512;13.460;2022-08-20T07:28:22;100842.38;;;21.12;81.01
50550;BME280;36505;52.512;13.460;2022-08-20T07:30:49;100852.41;;;21.13;80.79
50550;BME280;36505;52.512;13.460;2022-08-20T07:33:33;100845.78;;;21.09;80.84
50550;BME280;36505;52.512;13.460;2022-08-20T07:36:00;100851.06;;;21.10;80.73
50550;BME280;36505;52.512;13.460;2022-08-20T07:38:28;100853.66;;;21.07;80.96
50550;BME280;36505;52.512;13.460;2022-08-20T07:40:58;100856.91;;;21.09;81.16
50550;BME280;36505;52.512;13.460;2022-08-20T07:43:24;100850.88;;;21.07;81.00
50550;BME280;36505;52.512;13.460;2022-08-20T07:45:51;100861.69;;;21.08;81.02
50550;BME280;36505;52.512;13.460;2022-08-20T07:48:20;100858.38;;;21.06;81.13
50550;BME280;36505;52.512;13.460;2022-08-20T07:50:46;100866.22;;;21.04;81.01
50550;BME280;36505;52.512;13.460;2022-08-20T07:53:14;100860.47;;;21.01;80.85
50550;BME280;36505;52.512;13.460;2022-08-20T07:55:39;100858.81;;;21.00;81.46
50550;BME280;36505;52.512;13.460;2022-08-20T07:58:09;100856.03;;;21.00;81.51
50550;BME280;36505;52.512;13.460;2022-08-20T08:00:35;100858.81;;;21.00;81.84
50550;BME280;36505;52.512;13.460;2022-08-20T08:03:01;100858.50;;;21.01;81.81
50550;BME280;36505;52.512;13.460;2022-08-20T08:05:27;100851.59;;;20.99;81.93
50550;BME280;36505;52.512;13.460;2022-08-20T08:07:54;100854.38;;;20.99;82.18
50550;BME280;36505;52.512;13.460;2022-08-20T08:10:21;100858.69;;;21.05;82.05
50550;BME280;36505;52.512;13.460;2022-08-20T08:12:50;100862.91;;;21.02;82.16
50550;BME280;36505;52.512;13.460;2022-08-20T08:15:21;100851.91;;;20.97;81.93
50550;BME280;36505;52.512;13.460;2022-08-20T08:17:48;100864.88;;;21.02;81.82
50550;BME280;36505;52.512;13.460;2022-08-20T08:20:16;100864.06;;;21.01;81.64
50550;BME280;36505;52.512;13.460;2022-08-20T08:22:43;100864.06;;;21.01;81.55
50550;BME280;36505;52.512;13.460;2022-08-20T08:25:10;100871.25;;;21.02;81.89
50550;BME280;36505;52.512;13.460;2022-08-20T08:27:35;100872.44;;;21.01;81.76
50550;BME280;36505;52.512;13.460;2022-08-20T08:30:02;100871.59;;;21.01;81.91
50550;BME280;36505;52.512;13.460;2022-08-20T08:32:29;100877.78;;;20.98;82.04
50550;BME280;36505;52.512;13.460;2022-08-20T08:34:57;100876.94;;;20.97;82.05
50550;BME280;36505;52.512;13.460;2022-08-20T08:37:23;100878.00;;;21.01;82.00
50550;BME280;36505;52.512;13.460;2022-08-20T08:39:49;100869.31;;;21.03;82.03
50550;BME280;36505;52.512;13.460;2022-08-20T08:42:25;100878.19;;;21.05;82.13
50550;BME280;36505;52.512;13.460;2022-08-20T08:44:52;100881.50;;;21.07;82.08
50550;BME280;36505;52.512;13.460;2022-08-20T08:47:29;100884.47;;;21.10;82.36
50550;BME280;36505;52.512;13.460;2022-08-20T08:49:56;100880.53;;;21.11;82.22
50550;BME280;36505;52.512;13.460;2022-08-20T08:52:27;100880.53;;;21.11;81.51
50550;BME280;36505;52.512;13.460;2022-08-20T08:54:57;100880.25;;;21.13;81.71
50550;BME280;36505;52.512;13.460;2022-08-20T08:57:24;100886.84;;;21.17;81.75
50550;BME280;36505;52.512;13.460;2022-08-20T09:00:06;100885.59;;;21.23;81.66
50550;BME280;36505;52.512;13.460;2022-08-20T09:02:34;100875.63;;;21.22;81.47
50550;BME280;36505;52.512;13.460;2022-08-20T09:05:12;100888.31;;;21.28;81.15
50550;BME280;36505;52.512;13.460;2022-08-20T09:07:40;100889.13;;;21.28;80.85
50550;BME280;36505;52.512;13.460;2022-08-20T09:10:09;100887.34;;;21.33;80.88
50550;BME280;36505;52.512;13.460;2022-08-20T09:12:35;100893.22;;;21.31;81.28
50550;BME280;36505;52.512;13.460;2022-08-20T09:15:01;100893.75;;;21.33;81.11
50550;BME280;36505;52.512;13.460;2022-08-20T09:17:26;100892.81;;;21.38;80.69
50550;BME280;36505;52.512;13.460;2022-08-20T09:19:52;100897.94;;;21.44;80.63
50550;BME280;36505;52.512;13.460;2022-08-20T09:22:20;100905.03;;;21.50;80.66
50550;BME280;36505;52.512;13.460;2022-08-20T09:24:45;100906.56;;;21.56;80.26
50550;BME280;36505;52.512;13.460;2022-08-20T09:27:11;100905.81;;;21.64;80.44
50550;BME280;36505;52.512;13.460;2022-08-20T09:29:37;100904.25;;;21.72;79.87
50550;BME280;36505;52.512;13.460;2022-08-20T09:32:09;100898.25;;;21.79;79.67
50550;BME280;36505;52.512;13.460;2022-08-20T09:34:37;100895.97;;;21.81;79.34
50550;BME280;36505;52.512;13.460;2022-08-20T09:37:03;100913.41;;;21.86;79.06
50550;BME280;36505;52.512;13.460;2022-08-20T09:39:28;100910.31;;;21.88;78.92
50550;BME280;36505;52.512;13.460;2022-08-20T09:41:53;100900.81;;;21.89;78.75
50550;BME280;36505;52.512;13.460;2022-08-20T09:44:19;100906.88;;;21.91;78.60
50550;BME280;36505;52.512;13.460;2022-08-20T09:46:44;100903.16;;;21.95;78.18
50550;BME280;36505;52.512;13.460;2022-08-20T09:49:09;100899.25;;;21.96;78.44
50550;BME280;36505;52.512;13.460;2022-08-20T09:51:35;100911.94;;;22.02;78.33
50550;BME280;36505;52.512;13.460;2022-08-20T09:54:00;100905.22;;;22.03;78.26
50550;BME280;36505;52.512;13.460;2022-08-20T09:56:28;100912.31;;;22.10;77.91
50550;BME280;36505;52.512;13.460;2022-08-20T09:58:56;100905.78;;;22.14;77.65
50550;BME280;36505;52.512;13.460;2022-08-20T10:01:22;100897.25;;;22.19;77.04
50550;BME280;36505;52.512;13.460;2022-08-20T10:03:48;100901.91;;;22.24;76.65
50550;BME280;36505;52.512;13.460;2022-08-20T10:06:15;100906.53;;;22.28;76.93
50550;BME280;36505;52.512;13.460;2022-08-20T10:08:42;100905.06;;;22.31;76.65
50550;BME280;36505;52.512;13.460;2022-08-20T10:11:09;100901.25;;;22.27;76.62
50550;BME280;36505;52.512;13.460;2022-08-20T10:13:34;100899.94;;;22.24;76.41
50550;BME280;36505;52.512;13.460;2022-08-20T10:15:59;100905.88;;;22.31;76.40
50550;BME280;36505;52.512;13.460;2022-08-20T10:18:25;100909.38;;;22.37;76.22
50550;BME280;36505;52.512;13.460;2022-08-20T10:20:50;100889.50;;;22.38;76.08
50550;BME280;36505;52.512;13.460;2022-08-20T10:23:15;100908.25;;;22.46;75.34
50550;BME280;36505;52.512;13.460;2022-08-20T10:25:41;100911.94;;;22.56;75.03
50550;BME280;36505;52.512;13.460;2022-08-20T10:28:07;100905.69;;;22.59;74.64
50550;BME280;36505;52.512;13.460;2022-08-20T10:30:33;100908.84;;;22.66;74.24
50550;BME280;36505;52.512;13.460;2022-08-20T10:32:58;100902.31;;;22.70;73.69
50550;BME280;36505;52.512;13.460;2022-08-20T10:35:24;100906.81;;;22.80;73.25
50550;BME280;36505;52.512;13.460;2022-08-20T10:37:49;100898.47;;;22.89;72.55
50550;BME280;36505;52.512;13.460;2022-08-20T10:40:14;100899.97;;;22.95;72.22
50550;BME280;36505;52.512;13.460;2022-08-20T10:42:41;100906.22;;;23.00;71.61
50550;BME280;36505;52.512;13.460;2022-08-20T10:45:11;100900.31;;;23.02;70.96
50550;BME280;36505;52.512;13.460;2022-08-20T10:47:38;100895.25;;;23.04;70.23
50550;BME280;36505;52.512;13.460;2022-08-20T10:50:06;100898.22;;;23.16;69.54
50550;BME280;36505;52.512;13.460;2022-08-20T10:52:32;100897.09;;;23.26;68.61
50550;BME280;36505;52.512;13.460;2022-08-20T10:54:57;100899.75;;;23.31;68.50
50550;BME280;36505;52.512;13.460;2022-08-20T10:57:26;100899.25;;;23.37;67.81
50550;BME280;36505;52.512;13.460;2022-08-20T10:59:53;100902.38;;;23.44;67.10
50550;BME280;36505;52.512;13.460;2022-08-20T11:02:19;100902.25;;;23.49;67.30
50550;BME280;36505;52.512;13.460;2022-08-20T11:04:45;100903.59;;;23.52;66.55
50550;BME280;36505;52.512;13.460;2022-08-20T11:09:39;100922.16;;;23.65;65.71
50550;BME280;36505;52.512;13.460;2022-08-20T11:12:04;100911.16;;;23.69;65.63
50550;BME280;36505;52.512;13.460;2022-08-20T11:14:30;100921.38;;;23.73;65.15
50550;BME280;36505;52.512;13.460;2022-08-20T11:16:55;100916.41;;;23.70;64.92
50550;BME280;36505;52.512;13.460;2022-08-20T11:19:21;100919.03;;;23.58;64.79
50550;BME280;36505;52.512;13.460;2022-08-20T11:21:46;100923.16;;;23.52;64.67
50550;BME280;36505;52.512;13.460;2022-08-20T11:24:11;100929.19;;;23.45;64.92
50550;BME280;36505;52.512;13.460;2022-08-20T11:26:37;100921.75;;;23.41;64.59
50550;BME280;36505;52.512;13.460;2022-08-20T11:29:02;100920.47;;;23.38;64.59
50550;BME280;36505;52.512;13.460;2022-08-20T11:31:28;100918.00;;;23.37;64.00
50550;BME280;36505;52.512;13.460;2022-08-20T11:33:53;100924.72;;;23.36;64.36
50550;BME280;36505;52.512;13.460;2022-08-20T11:36:18;100922.25;;;23.34;63.16
50550;BME280;36505;52.512;13.460;2022-08-20T11:38:44;100925.53;;;23.36;63.48
50550;BME280;36505;52.512;13.460;2022-08-20T11:41:09;100927.84;;;23.34;63.28
50550;BME280;36505;52.512;13.460;2022-08-20T11:43:34;100927.69;;;23.31;62.82
50550;BME280;36505;52.512;13.460;2022-08-20T11:46:00;100929.66;;;23.30;62.14
50550;BME280;36505;52.512;13.460;2022-08-20T11:48:25;100922.72;;;23.28;62.08
50550;BME280;36505;52.512;13.460;2022-08-20T11:50:50;100926.19;;;23.24;62.54
50550;BME280;36505;52.512;13.460;2022-08-20T11:53:16;100922.56;;;23.24;62.49
50550;BME280;36505;52.512;13.460;2022-08-20T11:55:42;100932.09;;;23.23;62.78
50550;BME280;36505;52.512;13.460;2022-08-20T11:58:08;100932.75;;;23.20;62.35
50550;BME280;36505;52.512;13.460;2022-08-20T12:00:33;100931.94;;;23.19;61.92
50550;BME280;36505;52.512;13.460;2022-08-20T12:03:01;100933.41;;;23.17;61.75
50550;BME280;36505;52.512;13.460;2022-08-20T12:05:29;100936.00;;;23.13;61.33
50550;BME280;36505;52.512;13.460;2022-08-20T12:07:55;100942.75;;;23.12;61.35
50550;BME280;36505;52.512;13.460;2022-08-20T12:10:20;100936.66;;;23.10;61.85
50550;BME280;36505;52.512;13.460;2022-08-20T12:12:48;100935.00;;;23.09;61.41
50550;BME280;36505;52.512;13.460;2022-08-20T12:15:13;100929.75;;;23.08;61.66
50550;BME280;36505;52.512;13.460;2022-08-20T12:17:39;100932.88;;;23.06;62.12
50550;BME280;36505;52.512;13.460;2022-08-20T12:20:08;100934.84;;;23.06;62.00
50550;BME280;36505;52.512;13.460;2022-08-20T12:22:34;100930.41;;;23.05;61.98
50550;BME280;36505;52.512;13.460;2022-08-20T12:24:59;100936.81;;;23.05;62.14
50550;BME280;36505;52.512;13.460;2022-08-20T12:27:30;100932.53;;;23.08;62.42
50550;BME280;36505;52.512;13.460;2022-08-20T12:30:02;100929.41;;;23.09;62.40
50550;BME280;36505;52.512;13.460;2022-08-20T12:32:30;100934.38;;;23.12;62.81
50550;BME280;36505;52.512;13.460;2022-08-20T12:34:56;100941.25;;;23.15;62.90
50550;BME280;36505;52.512;13.460;2022-08-20T12:37:24;100942.09;;;23.15;63.24
50550;BME280;36505;52.512;13.460;2022-08-20T12:39:54;100944.56;;;23.17;63.34
50550;BME280;36505;52.512;13.460;2022-08-20T12:42:20;100942.59;;;23.17;63.26
50550;BME280;36505;52.512;13.460;2022-08-20T12:44:46;100938.16;;;23.16;63.30
50550;BME280;36505;52.512;13.460;2022-08-20T12:49:40;100940.44;;;23.14;63.11